Time;durP1;ratioP1;P1;durP2;ratioP2;P2;SDS_P1;SDS_P2;PMS_P1;PMS_P2;Temp;Humidity;BMP_temperature;BMP_pressure;BME280_temperature;BME280_humidity;BME280_pressure;Samples;Min_cycle;Max_cycle;Signal;HPM_P1;HPM_P2
2022/05/17 00:01:24;;;;;;;2.80;1.35;;;20.90;61.40;;;;;;10394346;28;20116;-65
2022/05/17 00:06:26;;;;;;;2.28;1.35;;;20.80;61.30;;;;;;10427600;28;20025;-65
2022/05/17 00:11:28;;;;;;;2.20;1.65;;;20.80;61.40;;;;;;10411846;28;20056;-65
2022/05/17 00:16:28;;;;;;;2.58;1.60;;;20.80;61.40;;;;;;10410997;28;20057;-65
2022/05/17 00:21:29;;;;;;;3.72;1.60;;;20.80;61.40;;;;;;10412668;28;20428;-65
2022/05/17 00:26:33;;;;;;;2.13;1.38;;;20.80;61.40;;;;;;10414254;28;20143;-65
2022/05/17 00:31:34;;;;;;;3.17;1.65;;;20.80;61.40;;;;;;10433791;28;20136;-66
2022/05/17 00:36:36;;;;;;;1.73;1.33;;;20.80;61.40;;;;;;10417516;28;20549;-65
2022/05/17 00:41:37;;;;;;;3.45;1.73;;;20.80;61.40;;;;;;10417119;28;20033;-65
2022/05/17 00:46:48;;;;;;;2.10;1.30;;;20.80;61.30;;;;;;10420785;28;20105;-65
2022/05/17 00:51:50;;;;;;;3.55;1.83;;;20.80;61.30;;;;;;10411445;28;20042;-65
2022/05/17 00:57:07;;;;;;;2.58;1.60;;;20.80;61.30;;;;;;10403563;28;20433;-65
2022/05/17 01:02:10;;;;;;;3.45;1.63;;;20.70;61.30;;;;;;10416829;28;20052;-65
2022/05/17 01:07:17;;;;;;;2.80;1.73;;;20.70;61.30;;;;;;10432863;28;20029;-65
2022/05/17 01:12:18;;;;;;;3.90;1.85;;;20.70;61.30;;;;;;10432436;28;20091;-66
2022/05/17 01:17:20;;;;;;;3.95;1.40;;;20.70;61.30;;;;;;10417222;28;20095;-64
2022/05/17 01:22:21;;;;;;;3.80;1.60;;;20.70;61.30;;;;;;10419034;28;20564;-66
2022/05/17 01:27:45;;;;;;;2.08;1.55;;;20.70;61.30;;;;;;10415659;28;20032;-65
2022/05/17 01:32:46;;;;;;;1.75;1.23;;;20.70;61.30;;;;;;10415082;28;20033;-66
2022/05/17 01:37:52;;;;;;;3.83;1.30;;;20.70;62.00;;;;;;10414074;28;20168;-65
2022/05/17 01:42:53;;;;;;;2.67;1.65;;;20.70;61.30;;;;;;10431100;28;20072;-65
2022/05/17 01:47:54;;;;;;;2.72;1.40;;;20.70;61.30;;;;;;10416092;28;20035;-65
2022/05/17 01:52:55;;;;;;;4.45;1.77;;;20.70;61.30;;;;;;10426482;28;20377;-65
2022/05/17 01:57:55;;;;;;;2.47;1.30;;;20.70;61.30;;;;;;10415561;28;20034;-65
2022/05/17 02:02:56;;;;;;;2.72;1.60;;;20.70;61.30;;;;;;10430606;28;20037;-65
2022/05/17 02:07:57;;;;;;;3.00;1.60;;;20.70;61.30;;;;;;10413967;28;20115;-65
2022/05/17 02:13:01;;;;;;;3.38;2.05;;;20.70;61.30;;;;;;10414713;28;20061;-65
2022/05/17 02:18:01;;;;;;;2.30;1.58;;;20.60;61.30;;;;;;10414889;28;20402;-65
2022/05/17 02:23:02;;;;;;;2.90;1.25;;;20.60;61.30;;;;;;10417961;28;20025;-65
2022/05/17 02:28:05;;;;;;;2.72;1.40;;;20.60;61.30;;;;;;10414768;28;20408;-66
2022/05/17 02:33:06;;;;;;;2.97;1.50;;;20.60;61.30;;;;;;10412605;28;20052;-65
2022/05/17 02:38:07;;;;;;;2.63;1.40;;;20.60;61.30;;;;;;10412749;28;20036;-65
2022/05/17 02:43:13;;;;;;;2.90;1.58;;;20.60;61.30;;;;;;10429087;28;20040;-65
2022/05/17 02:48:14;;;;;;;2.53;1.10;;;20.60;61.30;;;;;;10412707;28;20037;-66
2022/05/17 02:53:14;;;;;;;2.22;1.33;;;20.60;61.30;;;;;;10413645;28;20068;-65
2022/05/17 02:58:15;;;;;;;3.67;1.70;;;20.60;61.30;;;;;;10412483;28;20112;-65
2022/05/17 03:03:16;;;;;;;4.13;1.83;;;20.60;61.30;;;;;;10411985;28;20075;-64
2022/05/17 03:08:16;;;;;;;3.35;1.60;;;20.60;61.30;;;;;;10412055;28;20425;-65
2022/05/17 03:13:17;;;;;;;2.95;1.50;;;20.60;61.30;;;;;;10398447;28;20421;-65
2022/05/17 03:18:18;;;;;;;3.83;1.65;;;20.60;61.30;;;;;;10413021;28;20036;-65
2022/05/17 03:23:19;;;;;;;2.05;1.20;;;20.50;61.30;;;;;;10415097;28;20479;-65
2022/05/17 03:28:20;;;;;;;2.33;1.63;;;20.60;61.40;;;;;;10411509;28;20045;-65
2022/05/17 03:33:20;;;;;;;2.95;1.33;;;20.60;61.30;;;;;;10412222;28;20463;-65
2022/05/17 03:38:21;;;;;;;2.10;1.23;;;20.60;61.30;;;;;;10426831;28;20080;-65
2022/05/17 03:43:22;;;;;;;2.60;1.27;;;20.50;61.30;;;;;;10412298;28;20065;-65
2022/05/17 03:48:27;;;;;;;2.67;1.38;;;20.50;61.20;;;;;;10411226;28;20116;-65
2022/05/17 03:53:28;;;;;;;2.42;1.73;;;20.50;61.30;;;;;;10401141;28;20060;-65
2022/05/17 03:58:28;;;;;;;2.20;1.00;;;20.50;61.20;;;;;;10394043;28;20037;-66
2022/05/17 04:03:29;;;;;;;2.50;1.40;;;20.50;61.20;;;;;;10425621;28;20104;-63
2022/05/17 04:08:31;;;;;;;3.33;1.65;;;20.50;61.20;;;;;;10401414;28;20038;-63
2022/05/17 04:13:33;;;;;;;2.60;1.60;;;20.50;61.20;;;;;;10414912;28;20030;-64
2022/05/17 04:18:33;;;;;;;2.72;1.60;;;20.50;61.20;;;;;;10417015;28;20160;-63
2022/05/17 04:23:34;;;;;;;1.77;1.30;;;20.50;61.20;;;;;;10418904;28;20104;-64
2022/05/17 04:28:35;;;;;;;3.33;1.50;;;20.50;61.20;;;;;;10417382;28;20025;-63
2022/05/17 04:33:36;;;;;;;2.17;1.40;;;20.40;61.20;;;;;;10399997;28;20099;-63
2022/05/17 04:38:37;;;;;;;2.85;1.40;;;20.50;61.30;;;;;;10417160;28;20072;-64
2022/05/17 04:43:38;;;;;;;4.20;1.38;;;20.50;61.30;;;;;;10431365;28;20033;-63
2022/05/17 04:48:39;;;;;;;4.32;1.42;;;20.50;61.30;;;;;;10418030;28;20090;-60
2022/05/17 04:53:41;;;;;;;5.05;1.60;;;20.50;61.60;;;;;;10409521;28;20433;-61
2022/05/17 04:58:43;;;;;;;8.65;2.00;;;20.50;62.00;;;;;;10413744;28;20026;-59
2022/05/17 05:03:44;;;;;;;5.25;1.77;;;20.50;62.30;;;;;;10415006;28;20022;-61
2022/05/17 05:08:45;;;;;;;6.07;2.22;;;20.60;62.10;;;;;;10415371;28;20541;-62
2022/05/17 05:13:45;;;;;;;7.18;1.90;;;20.50;63.00;;;;;;10397991;28;20033;-62
2022/05/17 05:18:46;;;;;;;8.05;1.90;;;20.60;63.40;;;;;;10411000;28;20032;-63
2022/05/17 05:23:47;;;;;;;9.85;2.10;;;20.60;64.10;;;;;;10421625;28;20064;-62
2022/05/17 05:28:47;;;;;;;14.65;3.35;;;20.60;64.10;;;;;;10413650;28;20096;-61
2022/05/17 05:33:48;;;;;;;5.28;2.03;;;20.60;63.60;;;;;;10415035;28;20390;-60
2022/05/17 05:38:49;;;;;;;10.32;2.58;;;20.70;63.70;;;;;;10414859;28;20053;-59
2022/05/17 05:43:49;;;;;;;5.75;2.10;;;20.70;63.60;;;;;;10414208;28;20029;-61
2022/05/17 05:48:50;;;;;;;6.60;2.47;;;20.70;63.20;;;;;;10414526;28;20044;-62
2022/05/17 05:53:51;;;;;;;19.88;3.53;;;20.70;62.70;;;;;;10412117;28;20053;-63
2022/05/17 05:58:52;;;;;;;21.58;3.03;;;20.60;63.80;;;;;;10414586;28;20440;-60
2022/05/17 06:03:53;;;;;;;19.50;3.38;;;20.60;64.00;;;;;;10395562;28;20030;-60
2022/05/17 06:08:54;;;;;;;9.52;3.05;;;20.70;63.70;;;;;;10414496;28;20099;-60
2022/05/17 06:13:55;;;;;;;13.25;2.88;;;20.80;63.60;;;;;;10414256;28;20039;-57
2022/05/17 06:18:56;;;;;;;7.90;2.55;;;20.80;63.50;;;;;;10414912;28;20120;-60
2022/05/17 06:23:57;;;;;;;8.13;2.40;;;20.70;63.40;;;;;;10421604;28;20079;-59
2022/05/17 06:28:57;;;;;;;6.28;2.10;;;20.70;63.30;;;;;;10414361;28;20034;-60
2022/05/17 06:33:58;;;;;;;7.22;2.08;;;20.70;63.50;;;;;;10420381;28;20050;-60
2022/05/17 06:38:59;;;;;;;8.32;2.75;;;20.70;63.40;;;;;;10413275;28;20066;-61
2022/05/17 06:44:00;;;;;;;6.32;2.65;;;20.70;63.30;;;;;;10417120;28;20036;-59
2022/05/17 06:49:01;;;;;;;6.50;2.15;;;20.70;63.70;;;;;;10409884;28;20061;-57
2022/05/17 06:54:01;;;;;;;6.38;2.53;;;20.70;63.60;;;;;;10408534;28;20040;-60
2022/05/17 06:59:03;;;;;;;10.02;4.30;;;20.70;64.20;;;;;;10392854;28;20032;-61
2022/05/17 07:04:04;;;;;;;4.80;2.22;;;20.70;63.90;;;;;;10412466;28;20039;-59
2022/05/17 07:09:05;;;;;;;4.78;2.72;;;20.70;63.80;;;;;;10413162;28;20041;-59
2022/05/17 07:14:05;;;;;;;6.40;2.35;;;20.70;64.00;;;;;;10413188;28;20557;-60
2022/05/17 07:19:06;;;;;;;6.22;2.60;;;20.70;63.80;;;;;;10412299;28;20044;-60
2022/05/17 07:24:07;;;;;;;4.22;2.38;;;20.60;63.90;;;;;;10418556;28;20052;-60
2022/05/17 07:29:10;;;;;;;3.75;1.83;;;20.60;63.80;;;;;;10407763;28;20125;-60
2022/05/17 07:34:12;;;;;;;5.63;2.50;;;20.60;63.90;;;;;;10412484;28;20417;-60
2022/05/17 07:39:13;;;;;;;3.92;1.63;;;20.60;63.90;;;;;;10419390;28;20043;-59
2022/05/17 07:44:14;;;;;;;8.48;2.35;;;20.60;64.00;;;;;;10420487;28;20033;-59
2022/05/17 07:49:15;;;;;;;3.38;2.00;;;20.60;63.90;;;;;;10419485;28;20039;-59
2022/05/17 07:54:15;;;;;;;3.65;2.00;;;20.60;63.90;;;;;;10415639;28;20457;-60
2022/05/17 07:59:16;;;;;;;4.10;1.48;;;20.60;63.70;;;;;;10419848;28;20116;-60
2022/05/17 08:04:17;;;;;;;5.00;2.03;;;20.60;63.80;;;;;;10419586;28;20044;-60
2022/05/17 08:09:17;;;;;;;5.10;1.95;;;20.60;63.80;;;;;;10418303;28;20505;-61
2022/05/17 08:14:19;;;;;;;5.38;2.65;;;20.60;63.60;;;;;;10422600;28;20038;-59
2022/05/17 08:19:21;;;;;;;5.80;2.90;;;20.60;63.80;;;;;;10416316;28;20449;-60
2022/05/17 08:24:22;;;;;;;4.85;2.45;;;20.60;64.60;;;;;;10416187;28;20485;-58
2022/05/17 08:29:22;;;;;;;5.22;2.20;;;20.60;64.20;;;;;;10403587;28;20037;-60
2022/05/17 08:34:23;;;;;;;6.35;2.50;;;20.60;64.10;;;;;;10415155;28;20464;-58
2022/05/17 08:39:26;;;;;;;4.28;2.45;;;20.60;64.20;;;;;;10415563;28;20065;-61
2022/05/17 08:44:50;;;;;;;6.30;3.63;;;20.60;64.80;;;;;;10410411;28;20035;-60
2022/05/17 08:50:05;;;;;;;7.20;2.83;;;20.60;64.90;;;;;;10404149;28;20029;-59
2022/05/17 08:55:36;;;;;;;7.70;3.28;;;20.60;66.00;;;;;;10408946;28;20109;-60
2022/05/17 09:00:54;;;;;;;6.25;2.38;;;20.60;66.00;;;;;;10411914;28;20083;-59
2022/05/17 09:06:15;;;;;;;9.02;3.13;;;20.60;66.00;;;;;;10409205;28;20045;-57
2022/05/17 09:11:29;;;;;;;7.13;2.88;;;20.60;66.30;;;;;;10429425;28;20030;-62
2022/05/17 09:16:41;;;;;;;5.18;2.45;;;20.60;66.10;;;;;;10428768;28;20033;-62
2022/05/17 09:21:45;;;;;;;7.75;3.05;;;20.60;66.00;;;;;;10419635;28;20032;-62
2022/05/17 09:26:53;;;;;;;6.53;2.60;;;20.60;66.20;;;;;;10414367;28;20091;-63
2022/05/17 09:32:00;;;;;;;7.30;2.40;;;20.60;66.10;;;;;;10378686;28;1035130;-62
2022/05/17 09:37:13;;;;;;;4.63;2.03;;;20.60;66.10;;;;;;10415702;28;20033;-63
2022/05/17 09:42:42;;;;;;;4.05;1.95;;;20.60;66.00;;;;;;10414157;28;20038;-63
2022/05/17 09:47:55;;;;;;;3.40;2.13;;;20.60;65.80;;;;;;10429058;28;20497;-63
2022/05/17 09:53:14;;;;;;;3.47;2.05;;;20.60;66.00;;;;;;10413895;28;20033;-63
2022/05/17 09:58:40;;;;;;;4.97;2.00;;;20.60;65.90;;;;;;10414255;28;20072;-60
2022/05/17 10:03:44;;;;;;;3.42;1.85;;;20.60;65.90;;;;;;10414819;28;20026;-61
2022/05/17 10:09:08;;;;;;;6.65;2.90;;;20.60;65.80;;;;;;10414596;28;20105;-61
2022/05/17 10:14:40;;;;;;;4.57;1.85;;;20.60;65.60;;;;;;10414509;28;20033;-61
2022/05/17 10:19:46;;;;;;;4.35;2.67;;;20.70;64.60;;;;;;10413608;28;20039;-61
2022/05/17 10:25:07;;;;;;;4.40;2.00;;;20.70;64.50;;;;;;10422983;28;20053;-58
2022/05/17 10:30:16;;;;;;;3.60;2.05;;;20.70;64.50;;;;;;10411131;28;20037;-59
2022/05/17 10:35:40;;;;;;;7.57;2.40;;;20.70;64.50;;;;;;10417161;28;20133;-58
2022/05/17 10:40:47;;;;;;;6.50;2.25;;;20.70;64.50;;;;;;10414993;28;20032;-59
2022/05/17 10:46:12;;;;;;;4.93;1.77;;;20.70;64.50;;;;;;10411156;28;20045;-59
2022/05/17 10:51:24;;;;;;;4.15;1.65;;;20.80;64.60;;;;;;10412003;28;20397;-58
2022/05/17 10:56:47;;;;;;;6.85;2.30;;;20.80;64.30;;;;;;10403870;28;20136;-58
2022/05/17 11:02:29;;;;;;;4.90;2.35;;;20.80;64.30;;;;;;10402824;28;20091;-58
2022/05/17 11:08:12;;;;;;;8.63;2.80;;;20.80;64.20;;;;;;10351562;28;20034;-60
2022/05/17 11:13:37;;;;;;;4.68;2.95;;;20.80;64.20;;;;;;10403571;28;20057;-58
2022/05/17 11:18:49;;;;;;;6.05;2.40;;;20.80;64.10;;;;;;10407587;28;20042;-58
2022/05/17 11:24:01;;;;;;;4.63;2.15;;;20.80;64.20;;;;;;10418035;28;20122;-56
2022/05/17 11:29:33;;;;;;;4.13;2.13;;;20.80;64.20;;;;;;10416506;28;20112;-58
2022/05/17 11:34:45;;;;;;;4.35;2.30;;;20.80;64.20;;;;;;10402355;28;20100;-59
2022/05/17 11:39:48;;;;;;;6.60;2.05;;;20.80;64.10;;;;;;10405995;28;20026;-58
2022/05/17 11:44:49;;;;;;;8.27;2.92;;;20.80;64.00;;;;;;10410142;28;20104;-59
2022/05/17 11:49:50;;;;;;;7.63;3.35;;;20.80;64.10;;;;;;10406873;28;20127;-59
2022/05/17 11:54:52;;;;;;;4.03;2.22;;;20.80;64.00;;;;;;10410600;28;20072;-59
2022/05/17 12:00:30;;;;;;;6.53;2.95;;;20.80;64.00;;;;;;10408841;28;20390;-59
2022/05/17 12:05:47;;;;;;;5.15;2.38;;;20.90;64.00;;;;;;10411585;28;20033;-59
2022/05/17 12:10:54;;;;;;;4.78;2.25;;;20.90;64.00;;;;;;10409994;28;20038;-59
2022/05/17 12:15:55;;;;;;;4.50;2.03;;;20.90;64.00;;;;;;10397854;28;20112;-59
2022/05/17 12:21:16;;;;;;;6.40;2.00;;;20.90;64.00;;;;;;10413374;28;20033;-58
2022/05/17 12:26:41;;;;;;;7.65;2.72;;;21.00;64.00;;;;;;10412980;28;20086;-57
2022/05/17 12:31:42;;;;;;;5.20;2.35;;;21.10;63.90;;;;;;10418739;28;20111;-60
2022/05/17 12:36:43;;;;;;;5.38;2.75;;;21.10;63.60;;;;;;10418491;28;20090;-61
2022/05/17 12:47:31;;;;;;;9.57;2.53;;;21.10;63.70;;;;;;10417177;28;20033;-59
2022/05/17 12:52:35;;;;;;;6.38;2.90;;;21.10;63.50;;;;;;10415933;28;20039;-61
2022/05/17 12:57:39;;;;;;;7.93;3.20;;;21.20;63.60;;;;;;10415859;28;20073;-61
2022/05/17 13:02:47;;;;;;;8.25;2.80;;;21.20;63.50;;;;;;10416403;28;20046;-61
2022/05/17 13:07:47;;;;;;;18.02;4.38;;;21.30;63.50;;;;;;10417417;28;20042;-61
2022/05/17 13:12:48;;;;;;;11.82;3.40;;;21.30;63.90;;;;;;10417218;28;20553;-62
2022/05/17 13:17:56;;;;;;;11.30;4.00;;;21.30;63.70;;;;;;10415812;28;20116;-60
2022/05/17 13:22:57;;;;;;;9.33;3.20;;;21.40;63.50;;;;;;10414641;28;20044;-59
2022/05/17 13:27:58;;;;;;;9.07;3.00;;;21.40;63.40;;;;;;10414544;28;20218;-59
2022/05/17 13:33:01;;;;;;;13.02;3.38;;;21.40;63.40;;;;;;10412898;28;20042;-59
2022/05/17 13:38:17;;;;;;;6.93;2.80;;;21.40;63.30;;;;;;10419737;28;20080;-59
2022/05/17 13:43:33;;;;;;;8.88;2.40;;;21.40;63.40;;;;;;10403630;28;20409;-59
2022/05/17 13:48:37;;;;;;;6.82;2.60;;;21.40;63.20;;;;;;10410525;28;20130;-60
2022/05/17 13:53:48;;;;;;;8.00;2.60;;;21.50;63.40;;;;;;10415353;28;20378;-60
2022/05/17 13:58:48;;;;;;;6.70;2.92;;;21.50;63.40;;;;;;10413949;28;20393;-60
2022/05/17 14:04:08;;;;;;;5.90;2.35;;;21.40;63.20;;;;;;10415055;28;20025;-60
2022/05/17 14:14:30;;;;;;;4.65;2.60;;;21.50;63.10;;;;;;10414011;28;20045;-60
2022/05/17 14:19:33;;;;;;;12.40;5.68;;;21.50;63.10;;;;;;10410765;28;20033;-61
2022/05/17 14:24:34;;;;;;;8.18;2.75;;;21.40;64.00;;;;;;10414167;28;20430;-60
2022/05/17 14:29:37;;;;;;;8.93;3.13;;;21.50;63.30;;;;;;10418557;28;20040;-60
2022/05/17 14:34:41;;;;;;;9.15;2.88;;;21.50;63.20;;;;;;10413815;28;20390;-61
2022/05/17 14:39:42;;;;;;;10.23;3.67;;;21.50;63.40;;;;;;10412048;28;20033;-60
2022/05/17 14:44:42;;;;;;;6.35;3.15;;;21.40;63.40;;;;;;10428770;28;20040;-61
2022/05/17 14:49:53;;;;;;;5.75;2.97;;;21.50;63.20;;;;;;10407146;28;20060;-59
2022/05/17 14:54:54;;;;;;;7.25;2.70;;;21.50;62.80;;;;;;10408706;28;20121;-59
2022/05/17 14:59:54;;;;;;;5.18;2.58;;;21.50;63.10;;;;;;10407957;28;20477;-58
2022/05/17 15:04:55;;;;;;;7.07;2.92;;;21.40;63.20;;;;;;10411648;28;20057;-60
2022/05/17 15:10:08;;;;;;;6.60;2.80;;;21.40;63.20;;;;;;10406195;28;20025;-58
2022/05/17 15:15:10;;;;;;;6.20;3.00;;;21.50;63.40;;;;;;10401983;28;20029;-59
2022/05/17 15:20:14;;;;;;;3.95;2.33;;;21.60;63.30;;;;;;10401350;28;20037;-58
2022/05/17 15:25:17;;;;;;;5.15;3.42;;;21.80;62.90;;;;;;10414247;28;20033;-58
2022/05/17 15:30:22;;;;;;;5.05;2.65;;;21.80;63.00;;;;;;10409508;28;20107;-58
2022/05/17 15:35:28;;;;;;;5.88;3.13;;;22.00;63.40;;;;;;10416712;28;20084;-59
2022/05/17 15:40:28;;;;;;;5.10;3.08;;;22.00;63.70;;;;;;10408361;28;20030;-59
2022/05/17 15:45:29;;;;;;;4.38;3.13;;;22.10;64.10;;;;;;10411498;28;20040;-59
2022/05/17 15:56:01;;;;;;;8.32;4.15;;;22.20;64.50;;;;;;10411960;28;20037;-60
2022/05/17 16:01:09;;;;;;;5.75;3.83;;;22.30;63.80;;;;;;10413801;28;20040;-61
2022/05/17 16:06:12;;;;;;;4.63;3.33;;;22.30;63.90;;;;;;10417643;28;20036;-57
2022/05/17 16:16:31;;;;;;;7.30;4.45;;;22.10;63.40;;;;;;10417497;28;20037;-60
2022/05/17 16:21:32;;;;;;;7.97;3.78;;;21.90;63.60;;;;;;10420064;28;20645;-60
2022/05/17 16:26:33;;;;;;;6.72;4.18;;;21.90;63.40;;;;;;10430427;28;20030;-60
2022/05/17 16:31:34;;;;;;;7.85;3.92;;;21.90;63.30;;;;;;10418027;28;20393;-60
2022/05/17 16:36:35;;;;;;;8.27;4.82;;;21.90;63.30;;;;;;10416430;28;20060;-59
2022/05/17 16:41:35;;;;;;;8.45;4.38;;;21.90;63.00;;;;;;10414571;28;20048;-61
2022/05/17 16:46:41;;;;;;;9.73;4.53;;;21.90;63.40;;;;;;10415163;28;20026;-60
2022/05/17 16:51:43;;;;;;;10.15;4.53;;;21.80;63.50;;;;;;10413678;28;20069;-62
2022/05/17 16:56:43;;;;;;;8.52;4.97;;;21.80;63.30;;;;;;10417175;28;20033;-60
2022/05/17 17:01:45;;;;;;;9.65;4.55;;;21.80;63.20;;;;;;10416809;28;20432;-60
2022/05/17 17:06:47;;;;;;;7.13;4.40;;;21.80;63.40;;;;;;10416699;28;20090;-60
2022/05/17 17:11:47;;;;;;;6.30;4.15;;;21.80;63.30;;;;;;10415935;28;20064;-60
2022/05/17 17:16:48;;;;;;;6.75;4.03;;;21.90;63.50;;;;;;10416744;28;20021;-61
2022/05/17 17:21:49;;;;;;;6.03;3.53;;;21.90;63.60;;;;;;10422972;28;20596;-62
2022/05/17 17:26:49;;;;;;;7.15;4.15;;;21.90;63.60;;;;;;10421358;28;20036;-63
2022/05/17 17:31:50;;;;;;;8.43;4.28;;;22.00;63.40;;;;;;10414468;28;20056;-62
2022/05/17 17:42:10;;;;;;;4.60;3.63;;;22.10;63.00;;;;;;10412205;28;20112;-62
2022/05/17 17:47:12;;;;;;;6.47;3.90;;;22.10;62.70;;;;;;10414463;28;20042;-62
2022/05/17 17:52:13;;;;;;;6.15;3.70;;;22.00;62.70;;;;;;10412792;28;20036;-64
2022/05/17 17:57:18;;;;;;;5.60;3.63;;;21.90;62.70;;;;;;10413436;28;20042;-63
2022/05/17 18:02:18;;;;;;;4.70;3.50;;;21.90;62.80;;;;;;10424271;28;20033;-62
2022/05/17 18:07:19;;;;;;;5.82;3.28;;;21.90;62.80;;;;;;10413390;28;20053;-62
2022/05/17 18:12:25;;;;;;;5.90;3.42;;;21.90;62.70;;;;;;10412554;28;20378;-62
2022/05/17 18:17:41;;;;;;;5.93;3.00;;;21.90;62.90;;;;;;10411406;28;20474;-62
2022/05/17 18:22:42;;;;;;;9.18;3.38;;;21.80;63.00;;;;;;10411793;28;20040;-62
2022/05/17 18:27:48;;;;;;;10.43;4.28;;;21.80;62.90;;;;;;10408829;28;20033;-63
2022/05/17 18:32:52;;;;;;;7.38;3.80;;;21.70;63.00;;;;;;10411086;28;20045;-62
2022/05/17 18:37:52;;;;;;;6.88;3.78;;;21.80;63.00;;;;;;10410741;28;20044;-62
2022/05/17 18:42:53;;;;;;;7.43;3.10;;;21.70;62.90;;;;;;10418449;28;20240;-61
2022/05/17 18:48:01;;;;;;;5.75;3.10;;;21.80;63.40;;;;;;10414129;28;20504;-59
2022/05/17 18:53:03;;;;;;;7.93;3.45;;;21.80;63.40;;;;;;10407927;28;20076;-58
2022/05/17 18:58:06;;;;;;;11.30;4.38;;;21.80;64.00;;;;;;10422644;28;20125;-57
2022/05/17 19:03:12;;;;;;;13.60;3.45;;;21.80;63.50;;;;;;10411128;28;20025;-59
2022/05/17 19:13:33;;;;;;;;;;;21.90;64.10;;;;;;10408795;28;20041;-59
2022/05/17 19:18:55;;;;;;;8.10;2.97;;;21.80;63.90;;;;;;10407736;28;19917;-59
2022/05/17 19:23:57;;;;;;;4.45;3.03;;;21.80;64.00;;;;;;10414182;28;20025;-59
2022/05/17 19:28:58;;;;;;;5.82;2.95;;;21.70;63.90;;;;;;10425847;28;20034;-59
2022/05/17 19:34:04;;;;;;;9.80;3.45;;;21.70;63.80;;;;;;10419830;28;20046;-58
2022/05/17 19:44:25;;;;;;;4.15;2.45;;;21.70;63.80;;;;;;10419524;28;20037;-59
2022/05/17 19:49:29;;;;;;;7.72;3.22;;;21.70;63.70;;;;;;10436030;28;20037;-59
2022/05/17 19:54:30;;;;;;;4.78;2.63;;;21.70;63.70;;;;;;10419476;28;20025;-59
2022/05/17 19:59:31;;;;;;;4.95;2.60;;;21.70;63.60;;;;;;10435652;28;20033;-59
2022/05/17 20:04:31;;;;;;;6.63;3.15;;;21.70;63.60;;;;;;10418111;28;20095;-58
2022/05/17 20:09:36;;;;;;;7.68;2.60;;;21.70;63.50;;;;;;10417038;28;20031;-58
2022/05/17 20:14:40;;;;;;;6.63;2.42;;;21.70;63.40;;;;;;10415575;28;20035;-59
2022/05/17 20:19:42;;;;;;;3.58;2.80;;;21.70;63.40;;;;;;10418289;28;20048;-58
2022/05/17 20:24:46;;;;;;;5.68;3.00;;;21.70;63.40;;;;;;10417230;28;20025;-58
2022/05/17 20:29:47;;;;;;;5.40;2.60;;;21.70;63.40;;;;;;10414970;28;20391;-59
2022/05/17 20:34:52;;;;;;;4.65;2.60;;;21.70;63.40;;;;;;10417275;28;20076;-60
2022/05/17 20:39:52;;;;;;;3.95;2.45;;;21.70;63.30;;;;;;10425203;28;20113;-59
2022/05/17 20:44:56;;;;;;;3.80;2.78;;;21.70;63.30;;;;;;10420609;28;20135;-59
2022/05/17 20:50:00;;;;;;;3.25;2.42;;;21.70;63.30;;;;;;10417045;28;20025;-58
2022/05/17 20:55:01;;;;;;;4.30;3.03;;;21.70;63.30;;;;;;10415700;28;20026;-60
2022/05/17 21:00:05;;;;;;;4.90;2.22;;;21.70;63.30;;;;;;10417809;28;20029;-59
2022/05/17 21:05:07;;;;;;;6.00;2.92;;;21.60;63.90;;;;;;10417181;28;20513;-59
2022/05/17 21:10:08;;;;;;;6.53;2.22;;;21.60;63.30;;;;;;10417470;28;20030;-59
2022/05/17 21:15:10;;;;;;;3.90;2.10;;;21.60;63.30;;;;;;10417135;28;20138;-59
2022/05/17 21:20:14;;;;;;;3.53;2.25;;;21.60;63.30;;;;;;10411552;28;20075;-59
2022/05/17 21:25:15;;;;;;;4.88;2.80;;;21.70;63.30;;;;;;10418986;28;20029;-60
2022/05/17 21:30:20;;;;;;;4.93;2.10;;;21.60;63.20;;;;;;10431890;28;20112;-58
2022/05/17 21:35:21;;;;;;;3.47;1.85;;;21.60;63.30;;;;;;10416557;28;20515;-59
2022/05/17 21:40:22;;;;;;;2.78;2.13;;;21.60;63.30;;;;;;10414852;28;20042;-60
2022/05/17 21:45:22;;;;;;;3.50;2.25;;;21.60;63.30;;;;;;10416235;28;20405;-59
2022/05/17 21:50:28;;;;;;;3.67;2.65;;;21.60;63.30;;;;;;10415743;28;20116;-60
2022/05/17 21:55:29;;;;;;;3.83;2.25;;;21.60;63.20;;;;;;10413735;28;20470;-60
2022/05/17 22:00:39;;;;;;;3.25;1.90;;;21.60;63.20;;;;;;10413937;28;20033;-59
2022/05/17 22:05:41;;;;;;;;;;;21.60;63.30;;;;;;10415289;28;20037;-59
2022/05/17 22:16:08;;;;;;;2.65;2.35;;;21.60;63.40;;;;;;10414712;28;20025;-60
2022/05/17 22:21:09;;;;;;;3.05;2.20;;;21.60;63.40;;;;;;10391822;28;20033;-60
2022/05/17 22:26:10;;;;;;;4.22;2.40;;;21.60;63.40;;;;;;10411024;28;20040;-60
2022/05/17 22:31:11;;;;;;;5.70;2.88;;;21.60;63.40;;;;;;10413731;28;20051;-60
2022/05/17 22:36:13;;;;;;;2.83;2.40;;;21.60;63.40;;;;;;10413044;28;20065;-59
2022/05/17 22:41:14;;;;;;;2.78;2.10;;;21.60;63.40;;;;;;10412424;28;20204;-59
2022/05/17 22:51:34;;;;;;;3.92;2.35;;;21.60;63.40;;;;;;10399284;28;20045;-60
2022/05/17 22:56:34;;;;;;;2.60;1.83;;;21.60;63.40;;;;;;10413986;28;20437;-59
2022/05/17 23:01:35;;;;;;;3.03;2.05;;;21.60;63.40;;;;;;10412129;28;20076;-60
2022/05/17 23:06:36;;;;;;;3.75;2.55;;;21.50;63.30;;;;;;10428391;28;20036;-59
2022/05/17 23:11:37;;;;;;;4.03;2.63;;;21.60;63.40;;;;;;10411818;28;20029;-59
2022/05/17 23:16:37;;;;;;;3.22;2.08;;;21.50;63.40;;;;;;10412163;28;20060;-60
2022/05/17 23:21:39;;;;;;;3.20;1.80;;;21.60;63.40;;;;;;10412737;28;20057;-58
2022/05/17 23:31:59;;;;;;;2.50;2.00;;;21.50;63.40;;;;;;10412814;28;20045;-60
2022/05/17 23:37:00;;;;;;;5.55;2.50;;;21.50;63.40;;;;;;10412865;28;20053;-60
2022/05/17 23:42:00;;;;;;;4.10;2.88;;;21.50;63.40;;;;;;10412407;28;20061;-60
2022/05/17 23:47:03;;;;;;;3.30;2.10;;;21.50;63.40;;;;;;10412729;28;20065;-60
2022/05/17 23:52:04;;;;;;;5.13;2.70;;;21.50;63.40;;;;;;10427867;28;20034;-59
2022/05/17 23:57:05;;;;;;;4.30;2.22;;;21.50;63.40;;;;;;10412330;28;20072;-59
